sensor_id;sensor_type;location;lat;lon;timestamp;temperature;humidity
38398;DHT22;24179;52.094;4.408;2023-07-31T00:01:32;16.90;99.90
38398;DHT22;24179;52.094;4.408;2023-07-31T00:04:35;16.90;99.90
38398;DHT22;24179;52.094;4.408;2023-07-31T00:07:35;16.90;99.90
38398;DHT22;24179;52.094;4.408;2023-07-31T00:10:36;16.90;99.90
38398;DHT22;24179;52.094;4.408;2023-07-31T00:13:36;16.90;99.90
38398;DHT22;24179;52.094;4.408;2023-07-31T00:16:37;16.80;99.90
38398;DHT22;24179;52.094;4.408;2023-07-31T00:19:37;16.80;99.90
38398;DHT22;24179;52.094;4.408;2023-07-31T00:22:38;16.80;99.90
38398;DHT22;24179;52.094;4.408;2023-07-31T00:25:39;16.80;99.90
38398;DHT22;24179;52.094;4.408;2023-07-31T00:28:39;16.80;99.90
38398;DHT22;24179;52.094;4.408;2023-07-31T00:31:40;16.80;99.90
38398;DHT22;24179;52.094;4.408;2023-07-31T00:34:40;16.80;99.90
38398;DHT22;24179;52.094;4.408;2023-07-31T00:37:44;16.80;99.90
38398;DHT22;24179;52.094;4.408;2023-07-31T00:40:44;16.80;99.90
38398;DHT22;24179;52.094;4.408;2023-07-31T00:43:44;16.80;99.90
38398;DHT22;24179;52.094;4.408;2023-07-31T00:46:45;16.80;99.90
38398;DHT22;24179;52.094;4.408;2023-07-31T00:49:46;16.80;99.90
38398;DHT22;24179;52.094;4.408;2023-07-31T00:52:46;16.80;99.90
38398;DHT22;24179;52.094;4.408;2023-07-31T00:55:47;16.80;99.90
38398;DHT22;24179;52.094;4.408;2023-07-31T00:58:48;16.80;99.90
38398;DHT22;24179;52.094;4.408;2023-07-31T01:01:48;16.80;99.90
38398;DHT22;24179;52.094;4.408;2023-07-31T01:04:49;16.80;99.90
38398;DHT22;24179;52.094;4.408;2023-07-31T01:07:51;16.70;99.90
38398;DHT22;24179;52.094;4.408;2023-07-31T01:10:57;16.70;99.90
38398;DHT22;24179;52.094;4.408;2023-07-31T01:13:59;16.70;99.90
38398;DHT22;24179;52.094;4.408;2023-07-31T01:17:00;16.70;99.90
38398;DHT22;24179;52.094;4.408;2023-07-31T01:20:01;16.70;99.90
38398;DHT22;24179;52.094;4.408;2023-07-31T01:26:21;16.70;99.90
38398;DHT22;24179;52.094;4.408;2023-07-31T01:29:34;16.70;99.90
38398;DHT22;24179;52.094;4.408;2023-07-31T01:32:39;16.70;99.90
38398;DHT22;24179;52.094;4.408;2023-07-31T01:35:42;16.70;99.90
38398;DHT22;24179;52.094;4.408;2023-07-31T01:38:43;16.70;99.90
38398;DHT22;24179;52.094;4.408;2023-07-31T01:41:47;16.70;99.90
38398;DHT22;24179;52.094;4.408;2023-07-31T01:44:47;16.70;99.90
38398;DHT22;24179;52.094;4.408;2023-07-31T01:47:47;16.70;99.90
38398;DHT22;24179;52.094;4.408;2023-07-31T01:50:48;16.70;99.90
38398;DHT22;24179;52.094;4.408;2023-07-31T01:53:48;16.70;99.90
38398;DHT22;24179;52.094;4.408;2023-07-31T01:56:49;16.70;99.90
38398;DHT22;24179;52.094;4.408;2023-07-31T01:59:49;16.70;99.90
38398;DHT22;24179;52.094;4.408;2023-07-31T02:02:51;16.70;99.90
38398;DHT22;24179;52.094;4.408;2023-07-31T02:05:51;16.60;99.90
38398;DHT22;24179;52.094;4.408;2023-07-31T02:08:54;16.60;99.90
38398;DHT22;24179;52.094;4.408;2023-07-31T02:11:54;16.60;99.90
38398;DHT22;24179;52.094;4.408;2023-07-31T02:14:55;16.60;99.90
38398;DHT22;24179;52.094;4.408;2023-07-31T02:17:55;16.60;99.90
38398;DHT22;24179;52.094;4.408;2023-07-31T02:20:56;16.60;99.90
38398;DHT22;24179;52.094;4.408;2023-07-31T02:23:56;16.60;99.90
38398;DHT22;24179;52.094;4.408;2023-07-31T02:26:57;16.60;99.90
38398;DHT22;24179;52.094;4.408;2023-07-31T02:30:03;16.60;99.90
38398;DHT22;24179;52.094;4.408;2023-07-31T02:33:07;16.60;99.90
38398;DHT22;24179;52.094;4.408;2023-07-31T02:36:07;16.60;99.90
38398;DHT22;24179;52.094;4.408;2023-07-31T02:39:08;16.60;99.90
38398;DHT22;24179;52.094;4.408;2023-07-31T02:42:08;16.60;99.90
38398;DHT22;24179;52.094;4.408;2023-07-31T02:45:09;16.60;99.90
38398;DHT22;24179;52.094;4.408;2023-07-31T02:48:09;16.60;99.90
38398;DHT22;24179;52.094;4.408;2023-07-31T02:51:10;16.50;99.90
38398;DHT22;24179;52.094;4.408;2023-07-31T02:54:10;16.50;99.90
38398;DHT22;24179;52.094;4.408;2023-07-31T02:57:11;16.60;99.90
38398;DHT22;24179;52.094;4.408;2023-07-31T03:00:11;16.50;99.90
38398;DHT22;24179;52.094;4.408;2023-07-31T03:03:12;16.50;99.90
38398;DHT22;24179;52.094;4.408;2023-07-31T03:06:12;16.50;99.90
38398;DHT22;24179;52.094;4.408;2023-07-31T03:09:13;16.60;99.90
38398;DHT22;24179;52.094;4.408;2023-07-31T03:12:13;16.60;99.90
38398;DHT22;24179;52.094;4.408;2023-07-31T03:15:14;16.60;99.90
38398;DHT22;24179;52.094;4.408;2023-07-31T03:18:14;16.60;99.90
38398;DHT22;24179;52.094;4.408;2023-07-31T03:21:15;16.70;99.90
38398;DHT22;24179;52.094;4.408;2023-07-31T03:24:15;16.70;99.90
38398;DHT22;24179;52.094;4.408;2023-07-31T03:27:16;16.80;99.90
38398;DHT22;24179;52.094;4.408;2023-07-31T03:30:16;16.80;99.90
38398;DHT22;24179;52.094;4.408;2023-07-31T03:33:17;16.80;99.90
38398;DHT22;24179;52.094;4.408;2023-07-31T03:36:17;16.70;99.90
38398;DHT22;24179;52.094;4.408;2023-07-31T03:39:18;16.70;99.90
38398;DHT22;24179;52.094;4.408;2023-07-31T03:42:18;16.60;99.90
38398;DHT22;24179;52.094;4.408;2023-07-31T03:45:19;16.70;99.90
38398;DHT22;24179;52.094;4.408;2023-07-31T03:48:19;16.60;99.90
38398;DHT22;24179;52.094;4.408;2023-07-31T03:51:20;16.60;99.90
38398;DHT22;24179;52.094;4.408;2023-07-31T03:54:20;16.60;99.90
38398;DHT22;24179;52.094;4.408;2023-07-31T03:57:21;16.60;99.90
38398;DHT22;24179;52.094;4.408;2023-07-31T04:00:21;16.60;99.90
38398;DHT22;24179;52.094;4.408;2023-07-31T04:03:23;16.60;99.90
38398;DHT22;24179;52.094;4.408;2023-07-31T04:06:23;16.60;99.90
38398;DHT22;24179;52.094;4.408;2023-07-31T04:09:24;16.60;99.90
38398;DHT22;24179;52.094;4.408;2023-07-31T04:12:24;16.60;99.90
38398;DHT22;24179;52.094;4.408;2023-07-31T04:15:24;16.60;99.90
38398;DHT22;24179;52.094;4.408;2023-07-31T04:18:25;16.60;99.90
38398;DHT22;24179;52.094;4.408;2023-07-31T04:21:26;16.60;99.90
38398;DHT22;24179;52.094;4.408;2023-07-31T04:24:26;16.70;99.90
38398;DHT22;24179;52.094;4.408;2023-07-31T04:27:27;16.70;99.90
38398;DHT22;24179;52.094;4.408;2023-07-31T04:30:30;16.70;99.90
38398;DHT22;24179;52.094;4.408;2023-07-31T04:33:31;16.70;99.90
38398;DHT22;24179;52.094;4.408;2023-07-31T04:36:31;16.70;99.90
38398;DHT22;24179;52.094;4.408;2023-07-31T04:39:32;16.70;99.90
38398;DHT22;24179;52.094;4.408;2023-07-31T04:42:32;16.70;99.90
38398;DHT22;24179;52.094;4.408;2023-07-31T04:45:32;16.70;99.90
38398;DHT22;24179;52.094;4.408;2023-07-31T04:48:33;16.70;99.90
38398;DHT22;24179;52.094;4.408;2023-07-31T04:51:33;16.70;99.90
38398;DHT22;24179;52.094;4.408;2023-07-31T04:54:34;16.70;99.90
38398;DHT22;24179;52.094;4.408;2023-07-31T04:57:34;16.60;99.90
38398;DHT22;24179;52.094;4.408;2023-07-31T05:00:35;16.60;99.90
38398;DHT22;24179;52.094;4.408;2023-07-31T05:03:35;16.60;99.90
38398;DHT22;24179;52.094;4.408;2023-07-31T05:06:36;16.60;99.90
38398;DHT22;24179;52.094;4.408;2023-07-31T05:09:36;16.50;99.90
38398;DHT22;24179;52.094;4.408;2023-07-31T05:12:39;16.40;99.90
38398;DHT22;24179;52.094;4.408;2023-07-31T05:15:40;16.40;99.90
38398;DHT22;24179;52.094;4.408;2023-07-31T05:18:41;16.30;99.90
38398;DHT22;24179;52.094;4.408;2023-07-31T05:21:42;16.30;99.90
38398;DHT22;24179;52.094;4.408;2023-07-31T05:24:42;16.30;99.90
38398;DHT22;24179;52.094;4.408;2023-07-31T05:27:42;16.30;99.90
38398;DHT22;24179;52.094;4.408;2023-07-31T05:30:43;16.30;99.90
38398;DHT22;24179;52.094;4.408;2023-07-31T05:33:46;16.30;99.90
38398;DHT22;24179;52.094;4.408;2023-07-31T05:36:47;16.40;99.90
38398;DHT22;24179;52.094;4.408;2023-07-31T05:39:47;16.40;99.90
38398;DHT22;24179;52.094;4.408;2023-07-31T05:42:48;16.40;99.90
38398;DHT22;24179;52.094;4.408;2023-07-31T05:45:48;16.40;99.90
38398;DHT22;24179;52.094;4.408;2023-07-31T05:48:49;16.40;99.90
38398;DHT22;24179;52.094;4.408;2023-07-31T05:51:49;16.50;99.90
38398;DHT22;24179;52.094;4.408;2023-07-31T05:54:50;16.50;99.90
38398;DHT22;24179;52.094;4.408;2023-07-31T05:57:51;16.50;99.90
38398;DHT22;24179;52.094;4.408;2023-07-31T06:00:52;16.50;99.90
38398;DHT22;24179;52.094;4.408;2023-07-31T06:03:52;16.60;99.90
38398;DHT22;24179;52.094;4.408;2023-07-31T06:06:53;16.70;99.90
38398;DHT22;24179;52.094;4.408;2023-07-31T06:09:53;16.80;99.90
38398;DHT22;24179;52.094;4.408;2023-07-31T06:12:55;16.80;99.90
38398;DHT22;24179;52.094;4.408;2023-07-31T06:15:57;16.90;99.90
38398;DHT22;24179;52.094;4.408;2023-07-31T06:18:59;17.00;99.90
38398;DHT22;24179;52.094;4.408;2023-07-31T06:22:00;17.10;99.90
38398;DHT22;24179;52.094;4.408;2023-07-31T06:25:00;17.10;99.90
38398;DHT22;24179;52.094;4.408;2023-07-31T06:28:00;17.20;99.90
38398;DHT22;24179;52.094;4.408;2023-07-31T06:31:01;17.20;99.90
38398;DHT22;24179;52.094;4.408;2023-07-31T06:34:02;17.20;99.90
38398;DHT22;24179;52.094;4.408;2023-07-31T06:37:02;17.20;99.90
38398;DHT22;24179;52.094;4.408;2023-07-31T06:40:03;17.20;99.90
38398;DHT22;24179;52.094;4.408;2023-07-31T06:43:06;17.20;99.90
38398;DHT22;24179;52.094;4.408;2023-07-31T06:46:09;17.20;99.90
38398;DHT22;24179;52.094;4.408;2023-07-31T06:49:10;17.20;99.90
38398;DHT22;24179;52.094;4.408;2023-07-31T06:52:10;17.30;99.90
38398;DHT22;24179;52.094;4.408;2023-07-31T06:55:18;17.30;99.90
38398;DHT22;24179;52.094;4.408;2023-07-31T06:58:19;17.30;99.90
38398;DHT22;24179;52.094;4.408;2023-07-31T07:01:20;17.30;99.90
38398;DHT22;24179;52.094;4.408;2023-07-31T07:04:20;17.40;99.90
38398;DHT22;24179;52.094;4.408;2023-07-31T07:07:21;17.40;99.90
38398;DHT22;24179;52.094;4.408;2023-07-31T07:10:21;17.50;99.90
38398;DHT22;24179;52.094;4.408;2023-07-31T07:13:22;17.50;99.90
38398;DHT22;24179;52.094;4.408;2023-07-31T07:16:22;17.50;99.90
38398;DHT22;24179;52.094;4.408;2023-07-31T07:19:23;17.60;99.90
38398;DHT22;24179;52.094;4.408;2023-07-31T07:22:24;17.60;99.90
38398;DHT22;24179;52.094;4.408;2023-07-31T07:25:24;17.60;99.90
38398;DHT22;24179;52.094;4.408;2023-07-31T07:28:25;17.60;99.90
38398;DHT22;24179;52.094;4.408;2023-07-31T07:31:25;17.70;99.90
38398;DHT22;24179;52.094;4.408;2023-07-31T07:34:26;17.80;99.90
38398;DHT22;24179;52.094;4.408;2023-07-31T07:37:27;17.70;99.90
38398;DHT22;24179;52.094;4.408;2023-07-31T07:40:30;17.80;99.90
38398;DHT22;24179;52.094;4.408;2023-07-31T07:43:30;17.80;99.90
38398;DHT22;24179;52.094;4.408;2023-07-31T07:46:31;17.90;99.90
38398;DHT22;24179;52.094;4.408;2023-07-31T07:49:32;17.90;99.90
38398;DHT22;24179;52.094;4.408;2023-07-31T07:52:32;18.00;99.90
38398;DHT22;24179;52.094;4.408;2023-07-31T07:55:33;17.90;99.90
38398;DHT22;24179;52.094;4.408;2023-07-31T07:58:33;17.90;99.90
38398;DHT22;24179;52.094;4.408;2023-07-31T08:01:34;18.00;99.90
38398;DHT22;24179;52.094;4.408;2023-07-31T08:04:34;18.00;99.90
38398;DHT22;24179;52.094;4.408;2023-07-31T08:07:35;17.90;99.90
38398;DHT22;24179;52.094;4.408;2023-07-31T08:10:35;17.90;99.90
38398;DHT22;24179;52.094;4.408;2023-07-31T08:13:36;17.90;99.90
38398;DHT22;24179;52.094;4.408;2023-07-31T08:16:36;17.90;99.90
38398;DHT22;24179;52.094;4.408;2023-07-31T08:19:37;18.00;99.90
38398;DHT22;24179;52.094;4.408;2023-07-31T08:22:37;17.90;99.90
38398;DHT22;24179;52.094;4.408;2023-07-31T08:25:38;17.90;99.90
38398;DHT22;24179;52.094;4.408;2023-07-31T08:28:38;17.90;99.90
38398;DHT22;24179;52.094;4.408;2023-07-31T08:31:40;17.90;99.90
38398;DHT22;24179;52.094;4.408;2023-07-31T08:34:41;17.90;99.90
38398;DHT22;24179;52.094;4.408;2023-07-31T08:37:42;17.90;99.90
38398;DHT22;24179;52.094;4.408;2023-07-31T08:40:42;17.80;99.90
38398;DHT22;24179;52.094;4.408;2023-07-31T08:43:43;17.90;99.90
38398;DHT22;24179;52.094;4.408;2023-07-31T08:46:44;17.90;99.90
38398;DHT22;24179;52.094;4.408;2023-07-31T08:49:46;17.90;99.90
38398;DHT22;24179;52.094;4.408;2023-07-31T08:52:47;18.00;99.90
38398;DHT22;24179;52.094;4.408;2023-07-31T08:55:48;17.90;99.90
38398;DHT22;24179;52.094;4.408;2023-07-31T08:58:49;18.00;99.90
38398;DHT22;24179;52.094;4.408;2023-07-31T09:01:52;18.10;99.90
38398;DHT22;24179;52.094;4.408;2023-07-31T09:04:54;18.00;99.90
38398;DHT22;24179;52.094;4.408;2023-07-31T09:07:54;18.00;99.90
38398;DHT22;24179;52.094;4.408;2023-07-31T09:10:58;18.10;99.90
38398;DHT22;24179;52.094;4.408;2023-07-31T09:13:59;18.10;99.90
38398;DHT22;24179;52.094;4.408;2023-07-31T09:17:02;18.10;99.90
38398;DHT22;24179;52.094;4.408;2023-07-31T09:20:16;18.20;99.90
38398;DHT22;24179;52.094;4.408;2023-07-31T09:23:16;18.10;99.90
38398;DHT22;24179;52.094;4.408;2023-07-31T09:26:33;18.10;99.90
38398;DHT22;24179;52.094;4.408;2023-07-31T09:29:34;18.20;99.90
38398;DHT22;24179;52.094;4.408;2023-07-31T09:32:34;18.20;99.90
38398;DHT22;24179;52.094;4.408;2023-07-31T09:35:35;18.20;99.90
38398;DHT22;24179;52.094;4.408;2023-07-31T09:38:38;18.20;99.90
38398;DHT22;24179;52.094;4.408;2023-07-31T09:41:39;18.20;99.90
38398;DHT22;24179;52.094;4.408;2023-07-31T09:44:40;18.30;99.90
38398;DHT22;24179;52.094;4.408;2023-07-31T09:47:46;18.40;99.90
38398;DHT22;24179;52.094;4.408;2023-07-31T09:50:47;18.60;99.90
38398;DHT22;24179;52.094;4.408;2023-07-31T09:53:49;18.80;99.90
38398;DHT22;24179;52.094;4.408;2023-07-31T09:56:50;18.80;99.90
38398;DHT22;24179;52.094;4.408;2023-07-31T09:59:50;18.70;99.90
38398;DHT22;24179;52.094;4.408;2023-07-31T10:02:57;18.60;99.90
38398;DHT22;24179;52.094;4.408;2023-07-31T10:05:58;18.60;99.90
38398;DHT22;24179;52.094;4.408;2023-07-31T10:09:01;18.40;99.90
38398;DHT22;24179;52.094;4.408;2023-07-31T10:12:02;18.50;99.90
38398;DHT22;24179;52.094;4.408;2023-07-31T10:15:05;18.60;99.90
38398;DHT22;24179;52.094;4.408;2023-07-31T10:18:06;18.80;99.90
38398;DHT22;24179;52.094;4.408;2023-07-31T10:21:07;18.80;99.90
38398;DHT22;24179;52.094;4.408;2023-07-31T10:24:08;18.90;99.90
38398;DHT22;24179;52.094;4.408;2023-07-31T10:27:09;18.70;99.90
38398;DHT22;24179;52.094;4.408;2023-07-31T10:30:20;18.60;99.90
38398;DHT22;24179;52.094;4.408;2023-07-31T10:33:21;18.70;99.90
38398;DHT22;24179;52.094;4.408;2023-07-31T10:36:21;18.60;99.90
38398;DHT22;24179;52.094;4.408;2023-07-31T10:39:37;18.60;99.90
38398;DHT22;24179;52.094;4.408;2023-07-31T10:45:47;18.70;99.90
38398;DHT22;24179;52.094;4.408;2023-07-31T10:48:50;18.70;99.90
38398;DHT22;24179;52.094;4.408;2023-07-31T10:51:57;18.80;99.90
38398;DHT22;24179;52.094;4.408;2023-07-31T10:55:13;19.10;99.90
38398;DHT22;24179;52.094;4.408;2023-07-31T10:58:14;19.20;99.90
38398;DHT22;24179;52.094;4.408;2023-07-31T11:01:18;19.30;99.90
38398;DHT22;24179;52.094;4.408;2023-07-31T11:04:25;19.60;99.90
38398;DHT22;24179;52.094;4.408;2023-07-31T11:07:26;19.60;99.90
38398;DHT22;24179;52.094;4.408;2023-07-31T11:10:46;19.90;99.90
38398;DHT22;24179;52.094;4.408;2023-07-31T11:16:50;20.00;99.90
38398;DHT22;24179;52.094;4.408;2023-07-31T11:19:51;19.90;99.90
38398;DHT22;24179;52.094;4.408;2023-07-31T11:22:52;20.10;99.90
38398;DHT22;24179;52.094;4.408;2023-07-31T11:25:52;20.10;99.90
38398;DHT22;24179;52.094;4.408;2023-07-31T11:28:53;20.20;99.90
38398;DHT22;24179;52.094;4.408;2023-07-31T11:31:53;20.40;99.90
38398;DHT22;24179;52.094;4.408;2023-07-31T11:34:54;20.20;99.90
38398;DHT22;24179;52.094;4.408;2023-07-31T11:37:55;20.00;99.90
38398;DHT22;24179;52.094;4.408;2023-07-31T11:41:04;20.00;99.90
38398;DHT22;24179;52.094;4.408;2023-07-31T11:44:05;20.00;99.90
38398;DHT22;24179;52.094;4.408;2023-07-31T11:47:05;19.80;99.90
38398;DHT22;24179;52.094;4.408;2023-07-31T11:50:09;19.80;99.90
38398;DHT22;24179;52.094;4.408;2023-07-31T11:53:10;19.60;99.90
38398;DHT22;24179;52.094;4.408;2023-07-31T11:56:12;19.50;99.90
38398;DHT22;24179;52.094;4.408;2023-07-31T11:59:13;19.40;99.90
38398;DHT22;24179;52.094;4.408;2023-07-31T12:02:16;19.50;99.90
38398;DHT22;24179;52.094;4.408;2023-07-31T12:05:18;19.60;99.90
38398;DHT22;24179;52.094;4.408;2023-07-31T12:08:20;19.50;99.90
38398;DHT22;24179;52.094;4.408;2023-07-31T12:11:21;19.50;99.90
38398;DHT22;24179;52.094;4.408;2023-07-31T12:14:24;19.60;99.90
38398;DHT22;24179;52.094;4.408;2023-07-31T12:17:25;19.60;99.90
38398;DHT22;24179;52.094;4.408;2023-07-31T12:20:26;19.60;99.90
38398;DHT22;24179;52.094;4.408;2023-07-31T12:23:30;19.50;99.90
38398;DHT22;24179;52.094;4.408;2023-07-31T12:26:34;19.50;99.90
38398;DHT22;24179;52.094;4.408;2023-07-31T12:29:36;19.50;99.90
38398;DHT22;24179;52.094;4.408;2023-07-31T12:32:36;19.40;99.90
38398;DHT22;24179;52.094;4.408;2023-07-31T12:35:38;19.50;99.90
38398;DHT22;24179;52.094;4.408;2023-07-31T12:38:40;19.80;99.90
38398;DHT22;24179;52.094;4.408;2023-07-31T12:41:41;20.20;99.90
38398;DHT22;24179;52.094;4.408;2023-07-31T12:44:41;20.40;99.90
38398;DHT22;24179;52.094;4.408;2023-07-31T12:47:45;20.40;99.90
38398;DHT22;24179;52.094;4.408;2023-07-31T12:50:45;20.40;99.90
38398;DHT22;24179;52.094;4.408;2023-07-31T12:53:46;20.20;99.90
38398;DHT22;24179;52.094;4.408;2023-07-31T12:56:46;20.30;99.90
38398;DHT22;24179;52.094;4.408;2023-07-31T12:59:47;20.10;99.90
38398;DHT22;24179;52.094;4.408;2023-07-31T13:02:47;19.80;99.90
38398;DHT22;24179;52.094;4.408;2023-07-31T13:05:48;19.70;99.90
38398;DHT22;24179;52.094;4.408;2023-07-31T13:08:48;19.40;99.90
38398;DHT22;24179;52.094;4.408;2023-07-31T13:11:49;19.10;99.90
38398;DHT22;24179;52.094;4.408;2023-07-31T13:14:49;19.00;99.90
38398;DHT22;24179;52.094;4.408;2023-07-31T13:17:50;18.90;99.90
38398;DHT22;24179;52.094;4.408;2023-07-31T13:20:50;18.90;99.90
38398;DHT22;24179;52.094;4.408;2023-07-31T13:23:51;19.00;99.90
38398;DHT22;24179;52.094;4.408;2023-07-31T13:26:51;19.40;99.90
38398;DHT22;24179;52.094;4.408;2023-07-31T13:29:52;19.30;99.90
38398;DHT22;24179;52.094;4.408;2023-07-31T13:32:52;19.20;99.90
38398;DHT22;24179;52.094;4.408;2023-07-31T13:35:53;19.40;99.90
38398;DHT22;24179;52.094;4.408;2023-07-31T13:38:53;19.40;99.90
38398;DHT22;24179;52.094;4.408;2023-07-31T13:41:53;19.40;99.90
38398;DHT22;24179;52.094;4.408;2023-07-31T13:44:55;19.60;99.90
38398;DHT22;24179;52.094;4.408;2023-07-31T13:47:56;19.50;99.90
38398;DHT22;24179;52.094;4.408;2023-07-31T13:50:56;19.40;99.90
38398;DHT22;24179;52.094;4.408;2023-07-31T13:53:57;19.30;99.90
38398;DHT22;24179;52.094;4.408;2023-07-31T13:56:58;19.40;99.90
38398;DHT22;24179;52.094;4.408;2023-07-31T14:00:00;19.30;99.90
38398;DHT22;24179;52.094;4.408;2023-07-31T14:03:01;19.30;99.90
38398;DHT22;24179;52.094;4.408;2023-07-31T14:06:01;19.30;99.90
38398;DHT22;24179;52.094;4.408;2023-07-31T14:09:04;19.30;99.90
38398;DHT22;24179;52.094;4.408;2023-07-31T14:12:05;19.30;99.90
38398;DHT22;24179;52.094;4.408;2023-07-31T14:15:05;19.30;99.90
38398;DHT22;24179;52.094;4.408;2023-07-31T14:18:07;19.30;99.90
38398;DHT22;24179;52.094;4.408;2023-07-31T14:21:07;19.30;99.90
38398;DHT22;24179;52.094;4.408;2023-07-31T14:24:08;19.40;99.90
38398;DHT22;24179;52.094;4.408;2023-07-31T14:27:09;19.30;99.90
38398;DHT22;24179;52.094;4.408;2023-07-31T14:30:09;19.30;99.90
38398;DHT22;24179;52.094;4.408;2023-07-31T14:33:11;19.30;99.90
38398;DHT22;24179;52.094;4.408;2023-07-31T14:36:11;19.10;99.90
38398;DHT22;24179;52.094;4.408;2023-07-31T14:39:12;19.10;99.90
38398;DHT22;24179;52.094;4.408;2023-07-31T14:42:15;19.10;99.90
38398;DHT22;24179;52.094;4.408;2023-07-31T14:45:18;18.90;99.90
38398;DHT22;24179;52.094;4.408;2023-07-31T14:48:18;18.70;99.90
38398;DHT22;24179;52.094;4.408;2023-07-31T14:51:19;18.60;99.90
38398;DHT22;24179;52.094;4.408;2023-07-31T14:54:19;18.50;99.90
38398;DHT22;24179;52.094;4.408;2023-07-31T14:57:20;18.50;99.90
38398;DHT22;24179;52.094;4.408;2023-07-31T15:00:20;18.40;99.90
38398;DHT22;24179;52.094;4.408;2023-07-31T15:03:21;18.50;99.90
38398;DHT22;24179;52.094;4.408;2023-07-31T15:06:23;18.50;99.90
38398;DHT22;24179;52.094;4.408;2023-07-31T15:09:23;18.40;99.90
38398;DHT22;24179;52.094;4.408;2023-07-31T15:12:24;18.50;99.90
38398;DHT22;24179;52.094;4.408;2023-07-31T15:15:25;18.60;99.90
38398;DHT22;24179;52.094;4.408;2023-07-31T15:18:26;18.60;99.90
38398;DHT22;24179;52.094;4.408;2023-07-31T15:21:26;18.60;99.90
38398;DHT22;24179;52.094;4.408;2023-07-31T15:24:27;18.50;99.90
38398;DHT22;24179;52.094;4.408;2023-07-31T15:27:27;18.50;99.90
38398;DHT22;24179;52.094;4.408;2023-07-31T15:30:28;18.40;99.90
38398;DHT22;24179;52.094;4.408;2023-07-31T15:33:29;18.50;99.90
38398;DHT22;24179;52.094;4.408;2023-07-31T15:36:30;18.60;99.90
38398;DHT22;24179;52.094;4.408;2023-07-31T15:39:30;18.60;99.90
38398;DHT22;24179;52.094;4.408;2023-07-31T15:42:31;18.60;99.90
38398;DHT22;24179;52.094;4.408;2023-07-31T15:45:33;18.60;99.90
38398;DHT22;24179;52.094;4.408;2023-07-31T15:48:34;18.60;99.90
38398;DHT22;24179;52.094;4.408;2023-07-31T15:51:34;18.70;99.90
38398;DHT22;24179;52.094;4.408;2023-07-31T15:54:35;18.70;99.90
38398;DHT22;24179;52.094;4.408;2023-07-31T15:57:35;18.70;99.90
38398;DHT22;24179;52.094;4.408;2023-07-31T16:00:36;18.60;99.90
38398;DHT22;24179;52.094;4.408;2023-07-31T16:03:36;18.50;99.90
38398;DHT22;24179;52.094;4.408;2023-07-31T16:06:37;18.50;99.90
38398;DHT22;24179;52.094;4.408;2023-07-31T16:09:37;18.50;99.90
38398;DHT22;24179;52.094;4.408;2023-07-31T16:12:40;18.60;99.90
38398;DHT22;24179;52.094;4.408;2023-07-31T16:15:41;18.50;99.90
38398;DHT22;24179;52.094;4.408;2023-07-31T16:18:42;18.50;99.90
38398;DHT22;24179;52.094;4.408;2023-07-31T16:21:42;18.40;99.90
38398;DHT22;24179;52.094;4.408;2023-07-31T16:24:43;18.50;99.90
38398;DHT22;24179;52.094;4.408;2023-07-31T16:27:43;18.40;99.90
38398;DHT22;24179;52.094;4.408;2023-07-31T16:30:44;18.40;99.90
38398;DHT22;24179;52.094;4.408;2023-07-31T16:33:45;18.40;99.90
38398;DHT22;24179;52.094;4.408;2023-07-31T16:36:46;18.50;99.90
38398;DHT22;24179;52.094;4.408;2023-07-31T16:39:46;18.50;99.90
38398;DHT22;24179;52.094;4.408;2023-07-31T16:42:48;18.60;99.90
38398;DHT22;24179;52.094;4.408;2023-07-31T16:45:49;18.50;99.90
38398;DHT22;24179;52.094;4.408;2023-07-31T16:48:50;18.50;99.90
38398;DHT22;24179;52.094;4.408;2023-07-31T16:51:51;18.50;99.90
38398;DHT22;24179;52.094;4.408;2023-07-31T16:54:51;18.40;99.90
38398;DHT22;24179;52.094;4.408;2023-07-31T16:57:52;18.40;99.90
38398;DHT22;24179;52.094;4.408;2023-07-31T17:00:52;18.30;99.90
38398;DHT22;24179;52.094;4.408;2023-07-31T17:03:53;18.30;99.90
38398;DHT22;24179;52.094;4.408;2023-07-31T17:06:54;18.20;99.90
38398;DHT22;24179;52.094;4.408;2023-07-31T17:10:13;18.20;99.90
38398;DHT22;24179;52.094;4.408;2023-07-31T17:13:14;18.20;99.90
38398;DHT22;24179;52.094;4.408;2023-07-31T17:16:15;18.20;99.90
38398;DHT22;24179;52.094;4.408;2023-07-31T17:19:15;18.30;99.90
38398;DHT22;24179;52.094;4.408;2023-07-31T17:22:18;18.30;99.90
38398;DHT22;24179;52.094;4.408;2023-07-31T17:25:19;18.30;99.90
38398;DHT22;24179;52.094;4.408;2023-07-31T17:28:19;18.30;99.90
38398;DHT22;24179;52.094;4.408;2023-07-31T17:31:20;18.40;99.90
38398;DHT22;24179;52.094;4.408;2023-07-31T17:34:23;18.40;99.90
38398;DHT22;24179;52.094;4.408;2023-07-31T17:37:24;18.40;99.90
38398;DHT22;24179;52.094;4.408;2023-07-31T17:40:24;18.40;99.90
38398;DHT22;24179;52.094;4.408;2023-07-31T17:43:25;18.40;99.90
38398;DHT22;24179;52.094;4.408;2023-07-31T17:46:25;18.30;99.90
38398;DHT22;24179;52.094;4.408;2023-07-31T17:49:26;18.30;99.90
38398;DHT22;24179;52.094;4.408;2023-07-31T17:52:26;18.30;99.90
38398;DHT22;24179;52.094;4.408;2023-07-31T17:55:27;18.30;99.90
38398;DHT22;24179;52.094;4.408;2023-07-31T17:58:27;18.40;99.90
38398;DHT22;24179;52.094;4.408;2023-07-31T18:01:28;18.40;99.90
38398;DHT22;24179;52.094;4.408;2023-07-31T18:04:28;18.40;99.90
38398;DHT22;24179;52.094;4.408;2023-07-31T18:07:29;18.40;99.90
38398;DHT22;24179;52.094;4.408;2023-07-31T18:10:29;18.50;99.90
38398;DHT22;24179;52.094;4.408;2023-07-31T18:13:30;18.50;99.90
38398;DHT22;24179;52.094;4.408;2023-07-31T18:16:30;18.50;99.90
38398;DHT22;24179;52.094;4.408;2023-07-31T18:19:31;18.50;99.90
38398;DHT22;24179;52.094;4.408;2023-07-31T18:22:32;18.50;99.90
38398;DHT22;24179;52.094;4.408;2023-07-31T18:25:33;18.50;99.90
38398;DHT22;24179;52.094;4.408;2023-07-31T18:28:34;18.50;99.90
38398;DHT22;24179;52.094;4.408;2023-07-31T18:31:34;18.50;99.90
38398;DHT22;24179;52.094;4.408;2023-07-31T18:34:35;18.50;99.90
38398;DHT22;24179;52.094;4.408;2023-07-31T18:37:35;18.40;99.90
38398;DHT22;24179;52.094;4.408;2023-07-31T18:40:36;18.30;99.90
38398;DHT22;24179;52.094;4.408;2023-07-31T18:43:36;18.30;99.90
38398;DHT22;24179;52.094;4.408;2023-07-31T18:46:37;18.20;99.90
38398;DHT22;24179;52.094;4.408;2023-07-31T18:49:37;18.10;99.90
38398;DHT22;24179;52.094;4.408;2023-07-31T18:52:38;18.00;99.90
38398;DHT22;24179;52.094;4.408;2023-07-31T18:55:42;17.90;99.90
38398;DHT22;24179;52.094;4.408;2023-07-31T18:59:00;17.80;99.90
38398;DHT22;24179;52.094;4.408;2023-07-31T19:02:01;17.80;99.90
38398;DHT22;24179;52.094;4.408;2023-07-31T19:05:02;17.70;99.90
38398;DHT22;24179;52.094;4.408;2023-07-31T19:08:04;17.70;99.90
38398;DHT22;24179;52.094;4.408;2023-07-31T19:11:08;17.70;99.90
38398;DHT22;24179;52.094;4.408;2023-07-31T19:14:11;17.70;99.90